Time;durP1;ratioP1;P1;durP2;ratioP2;P2;SDS_P1;SDS_P2;PMS_P1;PMS_P2;Temp;Humidity;BMP_temperature;BMP_pressure;BME280_temperature;BME280_humidity;BME280_pressure;Samples;Min_cycle;Max_cycle;Signal;HPM_P1;HPM_P2
2023/03/02 00:01:54;;;;;;;3.80;3.25;;;;;;;4.74;57.62;100537.75;4478041;31;33468;-87
2023/03/02 00:04:25;;;;;;;5.55;2.25;;;;;;;4.71;57.38;100529.94;4480144;31;32795;-87
2023/03/02 00:06:56;;;;;;;1.48;1.05;;;;;;;4.55;57.70;100533.53;4493749;31;34755;-87
2023/03/02 00:09:24;;;;;;;2.72;2.53;;;;;;;4.61;57.33;100531.75;4477213;31;34038;-86
2023/03/02 00:11:51;;;;;;;0.70;0.70;;;;;;;4.57;57.48;100521.34;4468094;31;33465;-85
2023/03/02 00:14:19;;;;;;;3.10;2.83;;;;;;;4.58;57.29;100528.28;4464711;31;34137;-86
2023/03/02 00:16:47;;;;;;;4.78;4.35;;;;;;;4.46;57.60;100528.37;4478919;31;33745;-86
2023/03/02 00:19:14;;;;;;;2.00;1.08;;;;;;;4.46;57.67;100523.16;4478355;31;34194;-86
2023/03/02 00:21:42;;;;;;;4.47;1.60;;;;;;;4.42;57.73;100522.31;4478798;31;34653;-87
2023/03/02 00:24:10;;;;;;;1.92;1.75;;;;;;;4.52;57.11;100520.50;4477095;31;34435;-86
2023/03/02 00:26:38;;;;;;;1.05;1.05;;;;;;;4.41;57.52;100514.47;4476917;31;31985;-86
2023/03/02 00:29:06;;;;;;;9.85;2.70;;;;;;;4.06;58.78;100521.66;4464140;31;33530;-86
2023/03/02 00:31:34;;;;;;;3.42;3.12;;;;;;;4.28;58.12;100514.56;4463392;31;33373;-85
2023/03/02 00:34:01;;;;;;;0.95;0.95;;;;;;;4.06;58.59;100518.19;4490281;31;33824;-86
2023/03/02 00:36:29;;;;;;;0.40;0.40;;;;;;;4.27;57.83;100511.94;4479011;31;33579;-85
2023/03/02 00:38:57;;;;;;;3.50;2.70;;;;;;;4.11;58.46;100508.56;4491786;31;34192;-85
2023/03/02 00:41:24;;;;;;;0.95;0.93;;;;;;;4.15;58.38;100507.69;4478921;31;32122;-84
2023/03/02 00:43:52;;;;;;;2.03;1.92;;;;;;;4.02;58.64;100512.09;4474092;31;33858;-84
2023/03/02 00:46:21;;;;;;;7.65;2.87;;;;;;;4.08;58.52;100504.25;4475477;31;33614;-85
2023/03/02 00:48:51;;;;;;;2.65;1.55;;;;;;;4.15;58.00;100507.69;4476132;31;34133;-84
2023/03/02 00:51:19;;;;;;;1.92;1.85;;;;;;;4.21;57.78;100499.78;4490524;31;33116;-85
2023/03/02 00:53:47;;;;;;;0.88;0.85;;;;;;;4.17;58.00;100503.28;4478072;31;33884;-84
2023/03/02 00:56:14;;;;;;;0.37;0.37;;;;;;;4.06;58.44;100503.38;4479098;31;33854;-84
2023/03/02 00:58:42;;;;;;;3.00;2.60;;;;;;;4.06;58.37;100500.75;4493230;31;34082;-84
2023/03/02 01:01:12;;;;;;;0.90;0.90;;;;;;;4.08;57.95;100493.78;4477326;31;33043;-84
2023/03/02 01:03:40;;;;;;;1.23;1.17;;;;;;;3.92;58.53;100492.13;4477876;31;33479;-84
2023/03/02 01:06:16;;;;;;;0.57;0.57;;;;;;;3.99;58.41;100486.00;4477846;31;33891;-84
2023/03/02 01:08:45;;;;;;;2.50;2.37;;;;;;;3.99;58.34;100477.31;4488417;31;33446;-84
2023/03/02 01:11:18;;;;;;;1.05;1.05;;;;;;;4.02;58.30;100477.25;4465772;31;31633;-84
2023/03/02 01:13:47;;;;;;;0.95;0.95;;;;;;;4.04;58.19;100472.91;4478808;31;33514;-84
2023/03/02 01:16:15;;;;;;;1.12;1.12;;;;;;;3.92;58.19;100472.97;4476813;31;33420;-84
2023/03/02 01:18:42;;;;;;;0.45;0.45;;;;;;;3.84;58.34;100471.25;4478088;31;34412;-85
2023/03/02 01:21:13;;;;;;;2.40;2.10;;;;;;;3.99;58.19;100459.00;4479246;31;32936;-84
2023/03/02 01:23:42;;;;;;;1.60;1.50;;;;;;;4.04;57.94;100454.63;4492194;31;33582;-85
2023/03/02 01:26:09;;;;;;;1.95;1.62;;;;;;;3.74;58.69;100450.44;4477726;31;32749;-84
2023/03/02 01:28:37;;;;;;;1.45;1.30;;;;;;;3.83;58.05;100450.37;4471897;31;32621;-85
2023/03/02 01:31:05;;;;;;;1.12;1.12;;;;;;;3.94;57.75;100443.38;4480034;31;32567;-85
2023/03/02 01:33:33;;;;;;;2.30;2.20;;;;;;;3.91;58.07;100445.12;4465362;31;34748;-85
2023/03/02 01:36:01;;;;;;;3.45;2.60;;;;;;;3.81;58.07;100439.94;4491631;31;33575;-85
2023/03/02 01:38:29;;;;;;;1.62;1.30;;;;;;;3.85;57.79;100441.66;4479196;31;33194;-84
2023/03/02 01:40:56;;;;;;;2.40;2.08;;;;;;;3.69;58.59;100429.56;4480687;31;32275;-84
2023/03/02 01:43:24;;;;;;;0.30;0.30;;;;;;;3.80;58.05;100427.78;4491045;31;33804;-84
2023/03/02 01:45:54;;;;;;;0.70;0.70;;;;;;;3.71;57.98;100422.59;4471217;31;33743;-86
2023/03/02 01:48:27;;;;;;;0.62;0.28;;;;;;;3.65;58.04;100414.78;4479236;31;34005;-87
2023/03/02 01:50:56;;;;;;;1.90;1.80;;;;;;;3.82;57.32;100426.00;4476750;31;32637;-86
2023/03/02 01:53:27;;;;;;;1.58;0.93;;;;;;;3.77;57.53;100422.56;4479087;31;33175;-87
2023/03/02 01:55:56;;;;;;;1.58;1.50;;;;;;;3.58;57.77;100410.47;4472364;31;34225;-87
2023/03/02 01:58:24;;;;;;;0.30;0.30;;;;;;;3.63;57.72;100411.31;4464837;31;32874;-87
2023/03/02 02:00:53;;;;;;;0.98;0.98;;;;;;;3.60;57.84;100419.16;4478770;31;33316;-86
2023/03/02 02:03:24;;;;;;;0.77;0.77;;;;;;;3.56;57.97;100401.78;4478697;31;34246;-84
2023/03/02 02:06:09;;;;;;;1.27;1.15;;;;;;;3.54;57.63;100403.53;4477980;31;34639;-84
2023/03/02 02:08:38;;;;;;;1.23;1.23;;;;;;;3.54;57.81;100398.31;4477124;31;33489;-83
2023/03/02 02:11:06;;;;;;;0.90;0.90;;;;;;;3.41;57.80;100394.03;4475012;31;32749;-83
2023/03/02 02:13:33;;;;;;;0.00;0.00;;;;;;;3.43;57.65;100406.22;4479294;31;33144;-85
2023/03/02 02:16:01;;;;;;;0.15;0.15;;;;;;;3.49;57.38;100389.66;4477157;31;32894;-86
2023/03/02 02:18:29;;;;;;;1.17;1.15;;;;;;;3.54;57.32;100393.09;4480182;31;33862;-85
2023/03/02 02:20:56;;;;;;;0.08;0.08;;;;;;;3.33;57.86;100394.09;4480148;31;33223;-83
2023/03/02 02:23:27;;;;;;;0.10;0.10;;;;;;;3.57;57.29;100393.09;4479119;31;33825;-85
2023/03/02 02:26:12;;;;;;;2.47;2.28;;;;;;;3.57;57.43;100390.47;4476453;31;33114;-85
2023/03/02 02:29:06;;;;;;;1.33;1.30;;;;;;;3.51;57.80;100385.25;4492974;31;34614;-85
2023/03/02 02:31:37;;;;;;;0.10;0.10;;;;;;;3.49;57.59;100389.66;4474875;31;32209;-84
2023/03/02 02:34:14;;;;;;;0.52;0.52;;;;;;;3.49;57.78;100384.41;4492199;31;32978;-86
2023/03/02 02:36:44;;;;;;;0.15;0.15;;;;;;;3.48;57.54;100396.59;4478883;31;33605;-85
2023/03/02 02:39:31;;;;;;;1.98;1.87;;;;;;;3.61;57.36;100384.38;4481041;31;33098;-84
2023/03/02 02:42:02;;;;;;;1.65;1.55;;;;;;;3.51;57.12;100387.88;4468333;31;33989;-85
2023/03/02 02:44:30;;;;;;;1.20;0.95;;;;;;;3.51;57.28;100386.16;4464039;31;33177;-85
2023/03/02 02:46:59;;;;;;;0.00;0.00;;;;;;;3.51;57.12;100387.88;4466582;31;33615;-85
2023/03/02 02:49:30;;;;;;;0.47;0.47;;;;;;;3.56;56.79;100388.72;4476802;31;34243;-84
2023/03/02 02:51:58;;;;;;;1.20;1.10;;;;;;;3.48;56.89;100383.56;4476993;31;33340;-84
2023/03/02 02:54:27;;;;;;;3.30;2.70;;;;;;;3.58;56.66;100386.97;4479483;31;32974;-85
2023/03/02 02:56:56;;;;;;;0.20;0.20;;;;;;;3.51;56.80;100385.25;4470071;31;34020;-85
2023/03/02 02:59:30;;;;;;;0.90;0.90;;;;;;;3.41;56.95;100378.38;4466655;31;33311;-85
2023/03/02 03:01:58;;;;;;;1.02;1.00;;;;;;;3.38;56.81;100386.22;4478232;31;33456;-85
2023/03/02 03:04:30;;;;;;;0.98;0.98;;;;;;;3.42;57.03;100377.47;4466256;31;32287;-85
2023/03/02 03:07:00;;;;;;;1.03;0.97;;;;;;;3.30;56.80;100374.06;4468656;31;33867;-84
2023/03/02 03:09:28;;;;;;;0.22;0.22;;;;;;;3.33;57.11;100383.66;4480404;31;33791;-85
2023/03/02 03:11:59;;;;;;;0.85;0.85;;;;;;;3.36;56.80;100377.53;4465384;31;33816;-84
2023/03/02 03:14:34;;;;;;;0.13;0.13;;;;;;;3.43;56.66;100366.19;4490601;31;33519;-84
2023/03/02 03:17:01;;;;;;;0.50;0.50;;;;;;;3.32;56.88;100367.13;4466171;31;33014;-84
2023/03/02 03:19:31;;;;;;;0.20;0.20;;;;;;;3.31;56.96;100381.03;4480594;31;33145;-85
2023/03/02 03:22:01;;;;;;;2.47;1.00;;;;;;;3.28;57.07;100378.44;4473671;31;32147;-85
2023/03/02 03:24:31;;;;;;;0.70;0.70;;;;;;;3.34;56.65;100375.78;4491028;31;33887;-85
2023/03/02 03:27:00;;;;;;;1.35;0.80;;;;;;;3.22;56.69;100375.84;4477391;31;34045;-86
2023/03/02 03:29:29;;;;;;;0.95;0.95;;;;;;;3.33;56.43;100387.13;4480672;31;34163;-85
2023/03/02 03:31:58;;;;;;;1.15;1.12;;;;;;;3.11;56.75;100388.09;4478447;31;34091;-84
2023/03/02 03:34:28;;;;;;;0.73;0.73;;;;;;;3.10;56.91;100386.34;4466545;31;34291;-84
2023/03/02 03:37:00;;;;;;;0.70;0.70;;;;;;;3.28;56.40;100383.66;4490691;31;34694;-84
2023/03/02 03:39:29;;;;;;;0.80;0.80;;;;;;;3.22;56.91;100380.19;4478417;31;33817;-84
2023/03/02 03:41:57;;;;;;;2.28;1.95;;;;;;;3.32;56.48;100393.22;4479417;31;33004;-84
2023/03/02 03:44:25;;;;;;;1.80;1.50;;;;;;;3.03;57.23;100390.69;4467855;31;32222;-86
2023/03/02 03:46:53;;;;;;;1.33;1.33;;;;;;;2.76;57.17;100396.91;4465404;31;34202;-85
2023/03/02 03:49:22;;;;;;;2.90;2.42;;;;;;;3.12;56.50;100400.25;4477909;31;33853;-86
2023/03/02 03:51:49;;;;;;;5.78;3.15;;;;;;;3.03;56.24;100400.28;4478904;31;32723;-85
2023/03/02 03:54:17;;;;;;;3.45;1.15;;;;;;;2.74;56.66;100403.84;4478138;31;33820;-85
2023/03/02 03:56:47;;;;;;;2.42;1.60;;;;;;;2.93;55.98;100409.00;4476947;31;34636;-86
2023/03/02 03:59:19;;;;;;;0.20;0.20;;;;;;;2.56;57.36;100409.09;4482795;31;34524;-86
2023/03/02 04:01:50;;;;;;;1.62;0.62;;;;;;;2.90;56.65;100409.91;4466764;31;33474;-85
2023/03/02 04:04:25;;;;;;;0.25;0.25;;;;;;;2.86;56.45;100408.16;4478029;31;32981;-84
2023/03/02 04:06:53;;;;;;;0.50;0.50;;;;;;;2.86;56.54;100412.53;4476966;31;33429;-85
2023/03/02 04:09:21;;;;;;;0.17;0.17;;;;;;;2.98;56.64;100409.87;4478442;31;33949;-85
2023/03/02 04:11:51;;;;;;;0.95;0.95;;;;;;;2.98;56.39;100407.25;4491635;31;32190;-86
2023/03/02 04:14:20;;;;;;;0.47;0.47;;;;;;;2.99;56.57;100406.37;4452865;31;32975;-85
2023/03/02 04:16:49;;;;;;;2.37;2.17;;;;;;;3.26;55.57;100408.88;4476663;31;33514;-86
2023/03/02 04:19:17;;;;;;;0.08;0.08;;;;;;;2.96;56.45;100416.84;4477033;31;32614;-85
2023/03/02 04:21:51;;;;;;;2.40;2.20;;;;;;;2.96;56.61;100415.09;4492372;31;33034;-86
2023/03/02 04:24:21;;;;;;;0.57;0.57;;;;;;;3.01;56.51;100408.12;4477817;31;34566;-85
2023/03/02 04:26:49;;;;;;;0.00;0.00;;;;;;;3.13;56.10;100407.19;4478534;31;33620;-86
2023/03/02 04:29:18;;;;;;;0.90;0.90;;;;;;;3.08;56.35;100408.94;4490624;31;34413;-85
2023/03/02 04:31:47;;;;;;;0.93;0.93;;;;;;;3.25;55.77;100407.16;4470940;31;32900;-85
2023/03/02 04:34:15;;;;;;;5.18;1.55;;;;;;;3.06;56.26;100400.28;4476452;31;34513;-85
2023/03/02 04:36:43;;;;;;;0.22;0.22;;;;;;;3.09;56.27;100400.28;4465633;31;32538;-85
2023/03/02 04:39:13;;;;;;;0.55;0.55;;;;;;;2.99;56.04;100395.94;4477599;31;33157;-84
2023/03/02 04:41:41;;;;;;;0.35;0.35;;;;;;;2.99;56.31;100395.94;4450438;31;32838;-85
2023/03/02 04:44:09;;;;;;;0.10;0.10;;;;;;;3.08;56.05;100393.28;4477616;31;34112;-84
2023/03/02 04:46:37;;;;;;;0.52;0.52;;;;;;;2.96;56.62;100393.37;4489234;31;34037;-84
2023/03/02 04:49:05;;;;;;;0.62;0.62;;;;;;;2.86;56.90;100396.87;4478108;31;33255;-85
2023/03/02 04:51:37;;;;;;;0.00;0.00;;;;;;;2.94;56.70;100390.72;4492164;31;31741;-85
2023/03/02 04:54:10;;;;;;;0.82;0.82;;;;;;;2.83;57.08;100398.59;4493544;31;33734;-85
2023/03/02 04:56:37;;;;;;;0.00;0.00;;;;;;;3.03;56.60;100387.22;4481490;31;34439;-85
2023/03/02 04:59:05;;;;;;;10.35;1.35;;;;;;;3.11;55.88;100382.00;4474907;31;32689;-85
2023/03/02 05:01:33;;;;;;;0.45;0.30;;;;;;;2.89;56.30;100387.28;4465408;31;33290;-85
2023/03/02 05:04:00;;;;;;;0.25;0.25;;;;;;;2.52;57.75;100399.56;4465715;31;33473;-85
2023/03/02 05:06:29;;;;;;;0.62;0.57;;;;;;;2.70;57.17;100402.09;4476701;31;32842;-85
2023/03/02 05:08:58;;;;;;;0.30;0.30;;;;;;;2.79;57.20;100396.87;4464636;31;33667;-85
2023/03/02 05:11:26;;;;;;;0.85;0.85;;;;;;;2.83;57.02;100403.81;4466777;31;32568;-85
2023/03/02 05:13:57;;;;;;;2.60;0.95;;;;;;;2.70;57.37;100388.19;4464350;31;32987;-85
2023/03/02 05:16:27;;;;;;;1.25;1.20;;;;;;;2.91;56.88;100395.97;4491564;31;33336;-85
2023/03/02 05:18:56;;;;;;;1.45;1.35;;;;;;;2.62;57.55;100403.88;4480861;31;33829;-85
2023/03/02 05:21:23;;;;;;;0.20;0.20;;;;;;;2.79;57.18;100401.22;4493109;31;34072;-85
2023/03/02 05:23:51;;;;;;;1.37;1.27;;;;;;;2.71;57.27;100406.47;4479011;31;34309;-85
2023/03/02 05:26:19;;;;;;;0.00;0.00;;;;;;;2.93;56.55;100395.97;4466952;31;33567;-85
2023/03/02 05:28:47;;;;;;;0.05;0.05;;;;;;;2.74;56.80;100397.75;4491980;31;34469;-86
2023/03/02 05:31:22;;;;;;;0.10;0.10;;;;;;;2.49;57.04;100408.22;4477816;31;33263;-85
2023/03/02 05:33:51;;;;;;;0.25;0.25;;;;;;;2.46;57.43;100403.00;4463954;31;32741;-85
2023/03/02 05:36:18;;;;;;;1.17;0.40;;;;;;;2.55;57.36;100408.22;4478947;31;33982;-84
2023/03/02 05:38:49;;;;;;;0.13;0.05;;;;;;;2.63;57.37;100409.97;4466998;31;32842;-85
2023/03/02 05:41:17;;;;;;;0.10;0.10;;;;;;;2.63;57.54;100412.56;4477189;31;33563;-85
2023/03/02 05:43:45;;;;;;;1.05;1.05;;;;;;;2.36;58.19;100421.28;4465241;31;32740;-85
2023/03/02 05:46:13;;;;;;;0.00;0.00;;;;;;;2.45;58.04;100416.06;4467521;31;34648;-86
2023/03/02 05:48:42;;;;;;;0.52;0.52;;;;;;;2.58;57.89;100411.72;4469236;31;33128;-86
2023/03/02 05:51:09;;;;;;;0.20;0.20;;;;;;;2.63;57.97;100421.25;4474704;31;34169;-86
2023/03/02 05:53:38;;;;;;;0.52;0.52;;;;;;;2.47;58.41;100424.72;4475421;31;33037;-86
2023/03/02 05:56:09;;;;;;;0.20;0.20;;;;;;;2.80;57.41;100418.59;4464036;31;33342;-86
2023/03/02 05:58:40;;;;;;;0.08;0.08;;;;;;;2.61;57.87;100423.00;4464142;31;34312;-86
2023/03/02 06:01:10;;;;;;;0.00;0.00;;;;;;;2.74;57.81;100424.69;4464175;31;34327;-86
2023/03/02 06:03:42;;;;;;;0.77;0.77;;;;;;;2.80;57.65;100427.31;4465743;31;33107;-86
2023/03/02 06:06:12;;;;;;;4.32;2.87;;;;;;;2.86;57.53;100423.81;4477601;31;33914;-86
2023/03/02 06:08:41;;;;;;;0.68;0.68;;;;;;;3.02;57.13;100415.06;4465833;31;33453;-87
2023/03/02 06:11:09;;;;;;;0.43;0.43;;;;;;;2.86;57.94;100417.75;4478711;31;30741;-87
2023/03/02 06:13:37;;;;;;;0.20;0.20;;;;;;;2.99;57.96;100427.25;4480869;31;32131;-88
2023/03/02 06:16:05;;;;;;;0.75;0.75;;;;;;;3.02;58.39;100425.50;4466041;31;34614;-87
2023/03/02 06:18:36;;;;;;;1.65;1.12;;;;;;;3.19;57.95;100420.25;4471314;31;32601;-87
2023/03/02 06:21:08;;;;;;;0.03;0.03;;;;;;;3.26;57.75;100413.25;4462567;31;32867;-85
2023/03/02 06:23:35;;;;;;;1.33;1.23;;;;;;;3.15;58.28;100415.03;4488075;31;33506;-86
2023/03/02 06:26:08;;;;;;;1.10;1.10;;;;;;;3.23;57.92;100424.56;4476377;31;32957;-85
2023/03/02 06:28:36;;;;;;;1.87;1.77;;;;;;;3.45;57.44;100419.25;4475444;31;31771;-86
2023/03/02 06:31:19;;;;;;;1.08;0.88;;;;;;;3.57;57.24;100432.25;4469997;31;32779;-85
2023/03/02 06:33:47;;;;;;;7.40;6.68;;;;;;;3.55;57.26;100431.38;4476079;31;32953;-85
2023/03/02 06:36:15;;;;;;;21.12;7.12;;;;;;;3.63;57.36;100444.41;4463063;31;34539;-85
2023/03/02 06:38:44;;;;;;;1.90;1.80;;;;;;;3.61;57.13;100436.59;4469428;31;35778;-85
2023/03/02 06:41:11;;;;;;;8.02;3.05;;;;;;;3.83;56.76;100438.19;4475966;31;32709;-85
2023/03/02 06:43:39;;;;;;;1.87;1.65;;;;;;;3.89;56.40;100433.78;4466641;31;33692;-85
2023/03/02 06:46:07;;;;;;;88.10;40.55;;;;;;;3.88;56.45;100446.00;4491102;31;33889;-85
2023/03/02 06:48:35;;;;;;;6.82;6.30;;;;;;;4.25;56.10;100446.63;4489497;31;34488;-85
2023/03/02 06:51:03;;;;;;;1.70;1.60;;;;;;;4.23;56.26;100448.38;4467686;31;32610;-85
2023/03/02 06:53:30;;;;;;;0.65;0.65;;;;;;;4.25;56.18;100449.22;4476965;31;33607;-85
2023/03/02 06:55:58;;;;;;;0.40;0.40;;;;;;;4.44;55.87;100451.69;4477119;31;32999;-85
2023/03/02 06:58:25;;;;;;;6.90;6.32;;;;;;;4.66;55.54;100447.16;4488968;31;32481;-85
2023/03/02 07:00:53;;;;;;;6.07;4.20;;;;;;;4.84;54.85;100449.56;4478123;31;33391;-85
2023/03/02 07:03:21;;;;;;;2.45;1.85;;;;;;;4.79;54.60;100448.75;4476693;31;33610;-86
2023/03/02 07:05:50;;;;;;;3.00;2.53;;;;;;;4.98;54.36;100450.31;4489782;31;33680;-85
2023/03/02 07:08:18;;;;;;;2.53;2.42;;;;;;;4.92;54.55;100449.50;4478101;31;32574;-86
2023/03/02 07:10:45;;;;;;;6.75;5.28;;;;;;;4.90;54.64;100451.28;4492405;31;33437;-85
2023/03/02 07:13:13;;;;;;;4.50;4.03;;;;;;;5.33;53.55;100447.31;4478149;31;32819;-85
2023/03/02 07:15:40;;;;;;;3.05;2.62;;;;;;;5.52;52.60;100441.84;4463403;31;32942;-85
2023/03/02 07:18:36;;;;;;;4.53;4.12;;;;;;;5.68;52.58;100443.34;4490275;31;34427;-85
2023/03/02 07:21:05;;;;;;;3.08;2.87;;;;;;;5.72;49.05;100438.94;4476362;31;33155;-85
2023/03/02 07:23:33;;;;;;;3.00;2.50;;;;;;;5.97;49.33;100439.50;4472251;31;32578;-86
2023/03/02 07:26:00;;;;;;;3.97;3.60;;;;;;;6.54;43.51;100431.59;4489902;31;34098;-85
2023/03/02 07:28:28;;;;;;;1.85;1.58;;;;;;;6.51;44.33;100436.91;4476173;31;33667;-86
2023/03/02 07:30:56;;;;;;;1.23;1.05;;;;;;;6.76;40.69;100424.22;4475852;31;33430;-86
2023/03/02 07:33:23;;;;;;;0.95;0.55;;;;;;;7.11;41.97;100434.03;4489795;31;33813;-86
2023/03/02 07:35:51;;;;;;;0.45;0.45;;;;;;;7.35;38.39;100427.44;4479027;31;32569;-86
2023/03/02 07:38:19;;;;;;;2.33;2.12;;;;;;;7.30;40.84;100430.16;4477933;31;33364;-85
2023/03/02 07:40:46;;;;;;;1.45;0.50;;;;;;;7.45;38.87;100423.72;4478794;31;32933;-85
2023/03/02 07:43:14;;;;;;;0.47;0.47;;;;;;;7.57;38.42;100425.25;4478439;31;33700;-86
2023/03/02 07:45:42;;;;;;;1.52;1.35;;;;;;;7.74;37.26;100432.75;4480461;31;33877;-86
2023/03/02 07:48:10;;;;;;;0.20;0.20;;;;;;;8.03;37.66;100424.22;4477602;31;33621;-86
2023/03/02 07:50:37;;;;;;;2.75;2.58;;;;;;;8.01;37.12;100426.00;4477702;31;33444;-85
2023/03/02 07:53:05;;;;;;;0.90;0.90;;;;;;;8.38;35.97;100433.91;4478966;31;33924;-86
2023/03/02 07:55:32;;;;;;;0.25;0.25;;;;;;;8.55;35.32;100425.62;4479364;31;33819;-86
2023/03/02 07:58:00;;;;;;;0.88;0.88;;;;;;;8.59;35.48;100428.13;4478317;31;33870;-85
2023/03/02 08:00:28;;;;;;;5.50;1.15;;;;;;;8.47;35.44;100423.16;4477657;31;32796;-85
2023/03/02 08:02:55;;;;;;;3.20;1.60;;;;;;;8.49;34.15;100425.75;4480111;31;33631;-85
2023/03/02 08:05:23;;;;;;;0.73;0.73;;;;;;;8.23;33.57;100423.75;4478843;31;33928;-85
2023/03/02 08:07:51;;;;;;;0.85;0.85;;;;;;;8.70;34.98;100420.81;4469338;31;32319;-85
2023/03/02 08:10:18;;;;;;;0.20;0.20;;;;;;;8.65;33.38;100427.09;4477460;31;32807;-85
2023/03/02 08:12:46;;;;;;;0.10;0.10;;;;;;;8.78;35.01;100422.38;4474413;31;33439;-85
2023/03/02 08:15:13;;;;;;;0.40;0.15;;;;;;;8.81;33.51;100420.53;4465845;31;34303;-85
2023/03/02 08:17:41;;;;;;;0.40;0.20;;;;;;;9.05;32.84;100415.50;4476262;31;33875;-85
2023/03/02 08:20:09;;;;;;;0.10;0.10;;;;;;;8.89;33.92;100415.94;4472916;31;33305;-86
2023/03/02 08:22:39;;;;;;;5.30;1.30;;;;;;;8.73;32.77;100419.84;4477390;31;33902;-86
2023/03/02 08:25:07;;;;;;;2.28;2.03;;;;;;;9.22;32.91;100410.63;4461427;31;33663;-85
2023/03/02 08:27:35;;;;;;;1.02;0.95;;;;;;;9.68;32.60;100411.91;4473783;31;32905;-85
2023/03/02 08:30:03;;;;;;;0.08;0.08;;;;;;;9.13;32.40;100413.53;4476599;31;31396;-85
2023/03/02 08:32:33;;;;;;;0.28;0.28;;;;;;;9.16;32.91;100405.50;4475345;31;31681;-85
2023/03/02 08:35:03;;;;;;;2.65;0.60;;;;;;;9.31;32.81;100402.47;4478163;31;33912;-85
2023/03/02 08:37:31;;;;;;;3.30;1.60;;;;;;;9.55;32.27;100406.16;4463426;31;33506;-85
2023/03/02 08:39:58;;;;;;;0.22;0.22;;;;;;;9.59;32.61;100406.91;4487411;31;33304;-85
2023/03/02 08:42:26;;;;;;;1.15;0.50;;;;;;;9.53;33.22;100404.47;4474591;31;30625;-86
2023/03/02 08:44:53;;;;;;;0.47;0.40;;;;;;;9.42;33.54;100404.78;4475920;31;33432;-84
2023/03/02 08:47:21;;;;;;;3.08;1.35;;;;;;;9.92;32.47;100397.97;4475746;31;32110;-85
2023/03/02 08:49:50;;;;;;;0.30;0.20;;;;;;;9.55;31.98;100395.59;4487453;31;32214;-85
2023/03/02 08:52:17;;;;;;;0.88;0.82;;;;;;;9.91;33.15;100398.00;4460951;31;33230;-85
2023/03/02 08:54:45;;;;;;;0.45;0.45;;;;;;;10.16;32.00;100392.81;4466410;31;33815;-85
2023/03/02 08:57:13;;;;;;;4.50;3.35;;;;;;;9.88;32.50;100396.34;4462901;31;34209;-85
2023/03/02 08:59:41;;;;;;;3.12;1.10;;;;;;;9.98;32.80;100397.78;4475140;31;32888;-85
2023/03/02 09:02:11;;;;;;;0.15;0.15;;;;;;;10.34;31.87;100400.16;4485506;31;33520;-86
2023/03/02 09:04:38;;;;;;;0.70;0.70;;;;;;;10.26;31.45;100391.66;4473438;31;33818;-85
2023/03/02 09:07:08;;;;;;;0.20;0.20;;;;;;;10.52;31.46;100394.25;4475259;31;32470;-85
2023/03/02 09:09:35;;;;;;;0.62;0.62;;;;;;;10.57;32.21;100394.09;4462371;31;32475;-84
2023/03/02 09:12:03;;;;;;;2.25;1.73;;;;;;;10.79;30.55;100390.75;4464770;31;30772;-85
2023/03/02 09:14:30;;;;;;;0.93;0.43;;;;;;;10.38;31.66;100388.59;4475699;31;33862;-85
2023/03/02 09:16:58;;;;;;;1.25;0.35;;;;;;;10.22;32.70;100393.50;4488016;31;32267;-85
2023/03/02 09:19:26;;;;;;;0.60;0.60;;;;;;;10.09;33.30;100392.16;4471880;31;32850;-84
2023/03/02 09:21:53;;;;;;;0.57;0.57;;;;;;;10.66;31.46;100385.87;4485269;31;33970;-85
2023/03/02 09:24:21;;;;;;;0.00;0.00;;;;;;;10.22;33.71;100382.06;4474408;31;33457;-85
2023/03/02 09:26:49;;;;;;;1.23;1.12;;;;;;;10.61;31.95;100384.31;4488611;31;33291;-85
2023/03/02 09:29:16;;;;;;;0.35;0.35;;;;;;;10.48;32.77;100383.84;4470985;31;33150;-85
2023/03/02 09:31:44;;;;;;;1.35;1.10;;;;;;;10.27;32.71;100372.25;4472253;31;33843;-85
2023/03/02 09:34:12;;;;;;;2.08;1.35;;;;;;;10.69;32.83;100374.34;4460768;31;32726;-85
2023/03/02 09:36:39;;;;;;;2.08;1.17;;;;;;;11.17;32.15;100370.84;4487027;31;33334;-85
2023/03/02 09:39:11;;;;;;;1.62;1.52;;;;;;;11.24;32.82;100374.97;4487749;31;33315;-85
2023/03/02 09:42:09;;;;;;;1.50;0.73;;;;;;;11.37;32.06;100359.53;4466584;31;35225;-85
2023/03/02 09:44:37;;;;;;;1.55;1.40;;;;;;;11.74;31.92;100374.84;4465262;31;33054;-86
2023/03/02 09:47:14;;;;;;;1.62;1.52;;;;;;;11.73;32.24;100373.13;4476360;31;33192;-86
2023/03/02 09:50:20;;;;;;;1.27;1.17;;;;;;;11.47;32.53;100371.47;4489761;31;33007;-86
2023/03/02 09:53:12;;;;;;;16.62;2.37;;;;;;;11.63;31.64;100372.63;4478982;31;32594;-85
2023/03/02 09:55:40;;;;;;;1.75;1.33;;;;;;;12.12;31.62;100369.84;4490153;31;33627;-85
2023/03/02 09:58:18;;;;;;;1.27;1.17;;;;;;;11.81;31.44;100365.72;4486434;31;33518;-85
2023/03/02 10:00:46;;;;;;;0.20;0.20;;;;;;;11.35;31.46;100367.53;4476281;31;33851;-86
2023/03/02 10:03:20;;;;;;;2.28;1.55;;;;;;;11.58;30.99;100368.41;4475143;31;32553;-86
2023/03/02 10:05:50;;;;;;;6.43;1.23;;;;;;;11.35;31.56;100362.25;4463707;31;34322;-85
2023/03/02 10:08:23;;;;;;;1.20;0.75;;;;;;;11.97;29.98;100348.38;4488213;31;34419;-86
2023/03/02 10:11:10;;;;;;;2.17;1.95;;;;;;;11.67;30.60;100358.34;4476704;31;32834;-85
2023/03/02 10:14:02;;;;;;;0.15;0.15;;;;;;;12.20;31.03;100351.81;4491908;31;34092;-86
2023/03/02 10:16:37;;;;;;;1.67;1.58;;;;;;;11.45;31.44;100355.69;4478504;31;33945;-86
2023/03/02 10:19:19;;;;;;;1.30;1.20;;;;;;;12.02;30.53;100349.03;4477981;31;33287;-86
2023/03/02 10:21:48;;;;;;;0.90;0.90;;;;;;;12.13;31.83;100353.03;4480341;31;33066;-86
2023/03/02 10:24:39;;;;;;;1.17;0.98;;;;;;;12.54;29.89;100351.28;4464194;31;32325;-85
2023/03/02 10:27:16;;;;;;;0.98;0.98;;;;;;;12.96;29.72;100343.25;4492440;31;34008;-83
2023/03/02 10:30:05;;;;;;;0.22;0.22;;;;;;;13.11;30.29;100332.88;4478087;31;33857;-86
2023/03/02 10:32:42;;;;;;;0.75;0.75;;;;;;;13.85;28.30;100333.78;4489598;31;32706;-83
2023/03/02 10:35:19;;;;;;;2.60;1.48;;;;;;;13.73;28.89;100334.41;4489393;31;34042;-83
2023/03/02 10:37:50;;;;;;;0.20;0.20;;;;;;;14.25;27.59;100331.84;4488782;31;32850;-85
2023/03/02 10:40:30;;;;;;;2.70;0.95;;;;;;;14.17;27.68;100321.59;4476999;31;34479;-86
2023/03/02 10:42:58;;;;;;;0.28;0.28;;;;;;;14.43;26.91;100312.31;4468087;31;32342;-83
2023/03/02 10:45:29;;;;;;;1.00;1.00;;;;;;;14.41;27.08;100313.31;4476959;31;33401;-83
2023/03/02 10:48:01;;;;;;;2.42;1.15;;;;;;;14.46;27.56;100309.47;4485582;31;31971;-85
2023/03/02 10:50:29;;;;;;;;;;;;;;;13.67;28.10;100310.78;4486831;31;33755;-85
2023/03/02 10:52:57;;;;;;;0.32;0.32;;;;;;;14.00;27.68;100303.81;4478360;31;32955;-85
2023/03/02 10:55:28;;;;;;;2.62;0.50;;;;;;;13.94;28.16;100301.50;4467206;31;33115;-85
2023/03/02 10:58:05;;;;;;;0.10;0.10;;;;;;;13.73;28.80;100302.56;4489097;31;34156;-85
2023/03/02 11:00:34;;;;;;;0.37;0.20;;;;;;;13.71;28.83;100299.97;4466112;31;33271;-85
2023/03/02 11:03:05;;;;;;;4.40;1.27;;;;;;;14.19;28.95;100297.59;4489179;31;32737;-86
2023/03/02 11:05:36;;;;;;;1.62;1.45;;;;;;;14.48;28.02;100282.84;4462457;31;33759;-85
2023/03/02 11:08:04;;;;;;;1.23;1.12;;;;;;;14.20;29.42;100294.03;4473822;31;33332;-86
2023/03/02 11:10:33;;;;;;;0.32;0.32;;;;;;;13.88;30.91;100291.19;4477618;31;33470;-83
2023/03/02 11:13:15;;;;;;;0.20;0.20;;;;;;;14.35;28.45;100282.62;4475320;31;34095;-83
2023/03/02 11:15:49;;;;;;;6.43;1.62;;;;;;;14.18;31.28;100294.09;4478137;31;33251;-83
2023/03/02 11:18:36;;;;;;;0.55;0.55;;;;;;;14.99;29.10;100270.38;4489186;31;33838;-83
2023/03/02 11:21:09;;;;;;;0.77;0.75;;;;;;;14.59;29.90;100273.38;4487546;31;34446;-85
2023/03/02 11:23:43;;;;;;;0.37;0.37;;;;;;;14.50;30.95;100273.00;4478773;31;33270;-83
2023/03/02 11:26:19;;;;;;;1.65;0.93;;;;;;;15.38;28.58;100267.31;4489807;31;33686;-83
2023/03/02 11:28:52;;;;;;;2.40;1.40;;;;;;;15.22;28.50;100269.12;4474646;31;33818;-83
2023/03/02 11:31:31;;;;;;;0.47;0.47;;;;;;;15.08;28.98;100260.09;4475642;31;32675;-82
2023/03/02 11:34:20;;;;;;;1.33;1.20;;;;;;;14.67;30.86;100273.00;4462000;31;32211;-83
2023/03/02 11:37:26;;;;;;;0.80;0.80;;;;;;;14.85;31.76;100268.47;4476368;31;32896;-84
2023/03/02 11:40:50;;;;;;;0.52;0.52;;;;;;;14.80;33.54;100262.56;4491377;31;33669;-83
2023/03/02 11:43:18;;;;;;;1.33;1.23;;;;;;;15.60;30.89;100261.66;4441651;32;34351;-83
2023/03/02 11:45:47;;;;;;;0.50;0.50;;;;;;;15.63;31.30;100253.50;4482809;31;33998;-83
2023/03/02 11:48:29;;;;;;;7.65;0.70;;;;;;;15.32;30.33;100257.87;4490160;31;33377;-82